Time;durP1;ratioP1;P1;durP2;ratioP2;P2;SDS_P1;SDS_P2;PMS_P1;PMS_P2;Temp;Humidity;BMP_temperature;BMP_pressure;BME280_temperature;BME280_humidity;BME280_pressure;Samples;Min_cycle;Max_cycle;Signal;HPM_P1;HPM_P2
2023/08/20 00:00:47;;;;;;;3.63;3.30;;;19.70;99.90;;;;;;5088309;28;20535;-81
2023/08/20 00:03:14;;;;;;;3.30;3.00;;;19.70;99.90;;;;;;5082565;28;20500;-81
2023/08/20 00:05:42;;;;;;;4.10;3.80;;;19.60;99.90;;;;;;5085653;28;20462;-81
2023/08/20 00:08:09;;;;;;;4.27;3.97;;;19.60;99.90;;;;;;5083964;28;20443;-81
2023/08/20 00:10:37;;;;;;;4.60;4.20;;;19.70;99.90;;;;;;5082826;28;21061;-80
2023/08/20 00:13:05;;;;;;;4.40;4.10;;;19.70;99.90;;;;;;5077176;28;20468;-80
2023/08/20 00:15:32;;;;;;;5.30;3.97;;;19.70;99.90;;;;;;5086489;28;20482;-82
2023/08/20 00:17:59;;;;;;;5.07;4.33;;;19.70;99.90;;;;;;5087941;28;20436;-83
2023/08/20 00:20:28;;;;;;;5.27;4.83;;;19.60;99.90;;;;;;5086204;28;20539;-80
2023/08/20 00:22:55;;;;;;;5.73;4.50;;;19.60;99.90;;;;;;5073691;28;20464;-81
2023/08/20 00:25:22;;;;;;;4.70;4.40;;;19.50;99.90;;;;;;5083565;28;20446;-81
2023/08/20 00:27:50;;;;;;;4.90;4.50;;;19.50;99.90;;;;;;5069076;28;20545;-83
2023/08/20 00:30:17;;;;;;;7.33;5.13;;;19.50;99.90;;;;;;5085999;28;20447;-81
2023/08/20 00:32:44;;;;;;;4.17;3.77;;;19.50;99.90;;;;;;5087219;28;20945;-82
2023/08/20 00:35:11;;;;;;;5.83;5.27;;;19.40;99.90;;;;;;5085586;28;20581;-83
2023/08/20 00:37:38;;;;;;;5.17;4.77;;;19.40;99.90;;;;;;5088420;28;20439;-81
2023/08/20 00:40:07;;;;;;;5.43;4.73;;;19.40;99.90;;;;;;5076040;28;20468;-81
2023/08/20 00:42:34;;;;;;;5.57;5.10;;;19.40;99.90;;;;;;5084645;28;20856;-81
2023/08/20 00:45:02;;;;;;;5.63;5.13;;;19.30;99.90;;;;;;5077995;28;20499;-82
2023/08/20 00:47:30;;;;;;;5.20;4.80;;;19.40;99.90;;;;;;5086965;28;20508;-83
2023/08/20 00:49:57;;;;;;;4.80;4.40;;;19.40;99.90;;;;;;5087689;28;20851;-82
2023/08/20 00:52:24;;;;;;;16.93;4.47;;;19.30;99.90;;;;;;5076668;28;20485;-82
2023/08/20 00:54:51;;;;;;;6.70;6.13;;;19.10;99.90;;;;;;5075236;28;20591;-82
2023/08/20 00:57:19;;;;;;;4.67;4.37;;;19.00;99.90;;;;;;5081973;28;20864;-81
2023/08/20 00:59:49;;;;;;;4.73;4.40;;;19.10;99.90;;;;;;5076617;28;20594;-83
2023/08/20 01:02:18;;;;;;;5.33;4.93;;;19.10;99.90;;;;;;5085679;28;20522;-80
2023/08/20 01:04:46;;;;;;;5.40;5.00;;;19.10;99.90;;;;;;5082695;28;20460;-80
2023/08/20 01:07:22;;;;;;;6.13;5.73;;;19.20;99.90;;;;;;5085807;28;20592;-80
2023/08/20 01:09:58;;;;;;;6.20;5.00;;;19.20;99.90;;;;;;5082102;28;21034;-84
2023/08/20 01:12:26;;;;;;;4.60;4.30;;;19.10;99.90;;;;;;5084018;28;20506;-81
2023/08/20 01:14:53;;;;;;;12.00;5.47;;;19.00;99.90;;;;;;5089761;28;20483;-81
2023/08/20 01:17:22;;;;;;;4.50;4.10;;;19.00;99.90;;;;;;5071235;28;21022;-81
2023/08/20 01:19:49;;;;;;;4.77;4.33;;;19.00;99.90;;;;;;5078583;28;20515;-80
2023/08/20 01:22:36;;;;;;;4.63;4.23;;;19.00;99.90;;;;;;5080527;28;20528;-81
2023/08/20 01:25:15;;;;;;;5.40;4.90;;;18.90;99.90;;;;;;5079292;28;20501;-80
2023/08/20 01:27:52;;;;;;;4.93;4.53;;;18.90;99.90;;;;;;5083560;28;20460;-83
2023/08/20 01:30:21;;;;;;;5.53;5.03;;;18.90;99.90;;;;;;5081598;28;20470;-82
2023/08/20 01:32:50;;;;;;;5.50;5.10;;;18.90;99.90;;;;;;5076677;28;20465;-80
2023/08/20 01:35:17;;;;;;;5.40;4.30;;;18.90;99.90;;;;;;5076853;28;20482;-81
2023/08/20 01:37:45;;;;;;;5.40;4.90;;;18.90;99.90;;;;;;5073006;28;20450;-82
2023/08/20 01:40:13;;;;;;;7.83;4.80;;;18.90;99.90;;;;;;5075679;28;20555;-81
2023/08/20 01:42:40;;;;;;;5.17;4.67;;;18.80;99.90;;;;;;5081382;28;20534;-83
2023/08/20 01:45:08;;;;;;;5.03;4.63;;;18.70;99.90;;;;;;5082189;28;20607;-81
2023/08/20 01:47:37;;;;;;;10.03;4.33;;;18.60;99.90;;;;;;5086221;28;20534;-83
2023/08/20 01:50:04;;;;;;;4.73;4.33;;;18.50;99.90;;;;;;5086803;28;20809;-81
2023/08/20 01:52:31;;;;;;;4.93;3.73;;;18.50;99.90;;;;;;5083878;28;20526;-81
2023/08/20 01:54:59;;;;;;;4.53;4.10;;;18.50;99.90;;;;;;5070488;28;20483;-81
2023/08/20 01:57:26;;;;;;;5.00;4.70;;;18.40;99.90;;;;;;5086395;28;21101;-80
2023/08/20 01:59:53;;;;;;;3.97;3.63;;;18.40;99.90;;;;;;5086447;28;20507;-81
2023/08/20 02:02:20;;;;;;;5.40;5.00;;;18.40;99.90;;;;;;5075306;28;21051;-81
2023/08/20 02:04:48;;;;;;;5.50;3.93;;;18.30;99.90;;;;;;5085562;28;20450;-81
2023/08/20 02:07:15;;;;;;;4.87;4.30;;;18.30;99.90;;;;;;5075538;28;20573;-81
2023/08/20 02:09:42;;;;;;;5.00;4.47;;;18.30;99.90;;;;;;5080024;28;20479;-81
2023/08/20 02:12:10;;;;;;;5.70;4.70;;;18.20;99.90;;;;;;5069509;28;20468;-84
2023/08/20 02:14:37;;;;;;;5.00;4.50;;;18.30;99.90;;;;;;5071192;28;20998;-81
2023/08/20 02:17:05;;;;;;;6.07;5.50;;;18.30;99.90;;;;;;5086626;28;20518;-81
2023/08/20 02:19:32;;;;;;;5.57;5.07;;;18.30;99.90;;;;;;5086189;28;20467;-81
2023/08/20 02:22:00;;;;;;;6.07;5.47;;;18.20;99.90;;;;;;5073373;28;20487;-81
2023/08/20 02:24:27;;;;;;;6.30;5.73;;;18.10;99.90;;;;;;5085971;28;20516;-83
2023/08/20 02:26:54;;;;;;;7.30;5.07;;;18.10;99.90;;;;;;5078778;28;20516;-83
2023/08/20 02:29:21;;;;;;;5.73;5.23;;;18.10;99.90;;;;;;5071608;28;20938;-83
2023/08/20 02:31:48;;;;;;;5.93;5.43;;;18.00;99.90;;;;;;5087305;28;20447;-81
2023/08/20 02:34:15;;;;;;;5.87;5.37;;;17.90;99.90;;;;;;5076192;28;21005;-80
2023/08/20 02:36:42;;;;;;;4.53;4.13;;;17.90;99.90;;;;;;5084710;28;20482;-80
2023/08/20 02:39:10;;;;;;;6.30;5.50;;;18.00;99.90;;;;;;5088791;28;20462;-81
2023/08/20 02:41:37;;;;;;;5.60;5.10;;;18.10;99.90;;;;;;5090120;28;20481;-80
2023/08/20 02:44:05;;;;;;;5.80;5.30;;;18.10;99.90;;;;;;5087900;28;20555;-83
2023/08/20 02:46:32;;;;;;;7.63;6.33;;;18.20;99.90;;;;;;5087490;28;20462;-84
2023/08/20 02:48:59;;;;;;;5.83;5.33;;;18.20;99.90;;;;;;5078029;28;20448;-81
2023/08/20 02:51:26;;;;;;;5.83;5.33;;;18.20;99.90;;;;;;5089339;28;20501;-81
2023/08/20 02:53:52;;;;;;;5.30;4.90;;;18.20;99.90;;;;;;5088314;28;20445;-81
2023/08/20 02:56:21;;;;;;;5.97;5.47;;;18.10;99.90;;;;;;5089374;28;20560;-82
2023/08/20 02:58:48;;;;;;;4.67;4.27;;;18.10;99.90;;;;;;5074852;28;20510;-84
2023/08/20 03:01:23;;;;;;;6.07;5.57;;;18.10;99.90;;;;;;5080098;28;20981;-81
2023/08/20 03:03:50;;;;;;;6.03;5.53;;;18.10;99.90;;;;;;5087325;28;20449;-81
2023/08/20 03:06:17;;;;;;;5.80;4.63;;;18.20;99.90;;;;;;5076847;28;20517;-81
2023/08/20 03:08:44;;;;;;;6.47;4.93;;;18.30;99.90;;;;;;5090046;28;20451;-81
2023/08/20 03:11:11;;;;;;;6.37;5.87;;;18.20;99.90;;;;;;5083360;28;20460;-82
2023/08/20 03:13:39;;;;;;;5.50;5.00;;;18.20;99.90;;;;;;5088005;28;20442;-83
2023/08/20 03:16:06;;;;;;;5.03;4.67;;;18.10;99.90;;;;;;5090374;28;20505;-83
2023/08/20 03:18:33;;;;;;;4.13;3.77;;;18.00;99.90;;;;;;5088264;28;20496;-81
2023/08/20 03:21:00;;;;;;;6.27;5.67;;;18.00;99.90;;;;;;5086204;28;20454;-81
2023/08/20 03:23:29;;;;;;;6.40;5.90;;;17.90;99.90;;;;;;5081368;28;20997;-83
2023/08/20 03:25:58;;;;;;;5.40;4.90;;;17.90;99.90;;;;;;5089119;28;20900;-82
2023/08/20 03:28:25;;;;;;;5.20;4.80;;;17.90;99.90;;;;;;5069043;28;20917;-81
2023/08/20 03:30:54;;;;;;;5.97;5.47;;;17.90;99.90;;;;;;5083230;28;20443;-83
2023/08/20 03:33:21;;;;;;;6.00;5.50;;;18.10;99.90;;;;;;5088563;28;21062;-81
2023/08/20 03:35:48;;;;;;;6.47;5.40;;;18.00;99.90;;;;;;5084866;28;20484;-82
2023/08/20 03:38:14;;;;;;;6.50;4.80;;;17.90;99.90;;;;;;5088649;28;20499;-81
2023/08/20 03:40:41;;;;;;;6.10;5.60;;;17.70;99.90;;;;;;5088880;28;20505;-84
2023/08/20 03:43:08;;;;;;;5.80;5.33;;;17.70;99.90;;;;;;5088728;28;20446;-81
2023/08/20 03:45:35;;;;;;;5.67;5.27;;;17.60;99.90;;;;;;5088592;28;20941;-82
2023/08/20 03:48:04;;;;;;;6.77;6.17;;;17.70;99.90;;;;;;5088311;28;20517;-82
2023/08/20 03:50:31;;;;;;;5.77;5.20;;;17.70;99.90;;;;;;5085863;28;21197;-81
2023/08/20 03:52:58;;;;;;;6.47;5.77;;;17.70;99.90;;;;;;5083309;28;20512;-82
2023/08/20 03:55:25;;;;;;;4.40;4.10;;;17.70;99.90;;;;;;5078063;28;20862;-81
2023/08/20 03:57:52;;;;;;;5.90;5.40;;;17.70;99.90;;;;;;5074682;28;20822;-83
2023/08/20 04:00:19;;;;;;;8.30;5.57;;;17.70;99.90;;;;;;5088579;28;20517;-81
2023/08/20 04:02:46;;;;;;;5.77;5.27;;;17.70;99.90;;;;;;5070370;28;20476;-84
2023/08/20 04:05:14;;;;;;;5.73;5.33;;;17.60;99.90;;;;;;5069551;28;20444;-82
2023/08/20 04:07:41;;;;;;;4.50;4.10;;;17.60;99.90;;;;;;5075835;28;20539;-81
2023/08/20 04:10:09;;;;;;;5.30;4.83;;;17.60;99.90;;;;;;5068114;28;20992;-82
2023/08/20 04:12:36;;;;;;;6.70;4.70;;;17.60;99.90;;;;;;5073110;28;20468;-81
2023/08/20 04:15:04;;;;;;;4.87;4.47;;;17.70;99.90;;;;;;5072782;28;20464;-81
2023/08/20 04:17:30;;;;;;;4.50;4.20;;;17.70;99.90;;;;;;5068832;28;20512;-85
2023/08/20 04:19:57;;;;;;;6.77;5.93;;;17.70;99.90;;;;;;5072520;28;20484;-80
2023/08/20 04:22:27;;;;;;;6.90;6.30;;;17.70;99.90;;;;;;5088641;28;20440;-81
2023/08/20 04:24:54;;;;;;;5.90;5.40;;;17.70;99.90;;;;;;5071663;28;20930;-81
2023/08/20 04:27:21;;;;;;;5.67;5.13;;;17.80;99.90;;;;;;5076157;28;20525;-81
2023/08/20 04:29:47;;;;;;;5.00;4.23;;;17.70;99.90;;;;;;5075390;28;20447;-81
2023/08/20 04:32:14;;;;;;;6.80;6.03;;;17.70;99.90;;;;;;5079451;28;20490;-81
2023/08/20 04:34:41;;;;;;;6.43;5.83;;;17.80;99.90;;;;;;5085021;28;20478;-83
2023/08/20 04:37:08;;;;;;;7.30;6.73;;;17.80;99.90;;;;;;5081735;28;20515;-82
2023/08/20 04:39:36;;;;;;;5.60;5.10;;;17.80;99.90;;;;;;5081496;28;20486;-82
2023/08/20 04:42:04;;;;;;;6.27;5.60;;;17.90;99.90;;;;;;5079745;28;20443;-83
2023/08/20 04:44:31;;;;;;;5.23;4.83;;;17.80;99.90;;;;;;5079544;28;20447;-81
2023/08/20 04:46:57;;;;;;;5.63;5.13;;;17.80;99.90;;;;;;5088379;28;20511;-83
2023/08/20 04:49:28;;;;;;;5.80;5.30;;;17.80;99.90;;;;;;5085864;28;20501;-81
2023/08/20 04:51:55;;;;;;;6.50;5.80;;;17.80;99.90;;;;;;5080161;28;20477;-82
2023/08/20 04:54:22;;;;;;;5.63;5.23;;;17.80;99.90;;;;;;5084508;28;20535;-81
2023/08/20 04:56:50;;;;;;;6.03;5.37;;;17.80;99.90;;;;;;5072514;28;20488;-81
2023/08/20 04:59:17;;;;;;;5.80;5.30;;;18.00;99.90;;;;;;5088003;28;20450;-83
2023/08/20 05:01:44;;;;;;;7.33;6.63;;;18.10;99.90;;;;;;5087498;28;20864;-83
2023/08/20 05:04:11;;;;;;;8.63;5.37;;;18.20;99.90;;;;;;5085210;28;20459;-81
2023/08/20 05:06:38;;;;;;;4.60;3.90;;;18.30;99.90;;;;;;5082619;28;20501;-82
2023/08/20 05:09:05;;;;;;;6.50;4.30;;;18.30;99.90;;;;;;5087467;28;20451;-82
2023/08/20 05:11:33;;;;;;;6.00;4.60;;;18.30;99.90;;;;;;5087400;28;20447;-81
2023/08/20 05:14:02;;;;;;;5.00;4.60;;;18.50;99.90;;;;;;5073505;28;20460;-81
2023/08/20 05:16:28;;;;;;;4.80;4.30;;;18.60;99.90;;;;;;5083164;28;20498;-82
2023/08/20 05:18:55;;;;;;;5.53;5.07;;;18.60;99.90;;;;;;5085291;28;20446;-82
2023/08/20 05:21:22;;;;;;;5.50;5.07;;;18.80;99.90;;;;;;5079345;28;20454;-82
2023/08/20 05:23:50;;;;;;;5.30;4.90;;;18.80;99.90;;;;;;5075163;28;20521;-80
2023/08/20 05:26:17;;;;;;;4.97;4.67;;;18.90;99.90;;;;;;5068001;28;20505;-78
2023/08/20 05:28:44;;;;;;;5.40;4.57;;;19.10;99.90;;;;;;5067152;28;20455;-80
2023/08/20 05:31:12;;;;;;;5.23;4.80;;;19.00;99.90;;;;;;5082112;28;20463;-79
2023/08/20 05:33:39;;;;;;;4.83;4.43;;;19.10;99.90;;;;;;5083316;28;20468;-80
2023/08/20 05:36:06;;;;;;;6.07;5.57;;;19.20;99.90;;;;;;5082296;28;20529;-79
2023/08/20 05:38:33;;;;;;;5.47;4.87;;;19.40;99.90;;;;;;5086796;28;20870;-82
2023/08/20 05:41:00;;;;;;;4.57;4.17;;;19.40;99.90;;;;;;5072947;28;20539;-78
2023/08/20 05:43:27;;;;;;;6.23;4.73;;;19.40;99.90;;;;;;5087207;28;20913;-81
2023/08/20 05:45:54;;;;;;;4.40;4.10;;;19.40;99.90;;;;;;5075817;28;20521;-80
2023/08/20 05:48:22;;;;;;;4.87;4.53;;;19.70;99.90;;;;;;5087322;28;20443;-81
2023/08/20 05:50:49;;;;;;;5.77;5.27;;;19.80;99.90;;;;;;5074872;28;20526;-80
2023/08/20 05:53:16;;;;;;;4.83;4.20;;;19.80;99.90;;;;;;5086448;28;20479;-79
2023/08/20 05:55:43;;;;;;;7.07;4.50;;;20.00;99.90;;;;;;5085671;28;20479;-82
2023/08/20 05:58:11;;;;;;;5.00;4.60;;;20.20;99.90;;;;;;5082196;28;20482;-79
2023/08/20 06:00:38;;;;;;;5.17;4.77;;;20.20;99.90;;;;;;5083587;28;21064;-78
2023/08/20 06:03:07;;;;;;;3.77;3.50;;;20.30;99.90;;;;;;5086582;28;20487;-79
2023/08/20 06:05:35;;;;;;;7.07;5.97;;;20.60;99.90;;;;;;5085190;28;20454;-83
2023/08/20 06:08:02;;;;;;;4.73;4.20;;;20.80;99.90;;;;;;5077847;28;20815;-79
2023/08/20 06:10:29;;;;;;;4.70;4.30;;;20.90;99.90;;;;;;5086378;28;20504;-81
2023/08/20 06:12:56;;;;;;;5.33;4.93;;;21.10;99.90;;;;;;5074608;28;20540;-79
2023/08/20 06:15:23;;;;;;;3.97;3.67;;;21.10;99.90;;;;;;5084476;28;20976;-80
2023/08/20 06:17:50;;;;;;;5.23;4.83;;;21.20;99.90;;;;;;5083254;28;20574;-79
2023/08/20 06:20:18;;;;;;;7.60;5.50;;;21.30;99.90;;;;;;5086765;28;20512;-79
2023/08/20 06:22:46;;;;;;;6.53;4.00;;;21.50;99.90;;;;;;5072686;28;20830;-81
2023/08/20 06:25:13;;;;;;;3.77;3.20;;;21.60;99.90;;;;;;5081100;28;20476;-79
2023/08/20 06:27:42;;;;;;;4.17;3.83;;;21.90;99.90;;;;;;5076325;28;20452;-79
2023/08/20 06:30:10;;;;;;;5.27;4.77;;;22.00;99.90;;;;;;5077642;28;20459;-79
2023/08/20 06:32:37;;;;;;;5.20;4.70;;;22.10;99.90;;;;;;5086419;28;20455;-80
2023/08/20 06:35:04;;;;;;;5.57;5.13;;;22.10;99.90;;;;;;5084193;28;20470;-79
2023/08/20 06:37:31;;;;;;;4.97;4.67;;;22.30;99.90;;;;;;5086374;28;21014;-83
2023/08/20 06:40:02;;;;;;;6.10;4.67;;;22.40;99.90;;;;;;5079334;28;20567;-81
2023/08/20 06:42:29;;;;;;;5.20;4.80;;;22.60;99.90;;;;;;5074215;28;20445;-78
2023/08/20 06:44:56;;;;;;;6.63;6.03;;;22.60;99.90;;;;;;5067637;28;20494;-81
2023/08/20 06:47:23;;;;;;;4.83;4.53;;;22.60;99.90;;;;;;5076965;28;20457;-79
2023/08/20 06:49:51;;;;;;;4.33;3.97;;;22.70;99.90;;;;;;5079206;28;20474;-79
2023/08/20 06:52:18;;;;;;;4.60;4.20;;;22.80;99.90;;;;;;5074508;28;20472;-77
2023/08/20 06:54:45;;;;;;;5.00;4.53;;;22.90;99.90;;;;;;5066221;28;20912;-80
2023/08/20 06:57:14;;;;;;;5.30;4.77;;;23.00;99.90;;;;;;5070364;28;20536;-79
2023/08/20 06:59:42;;;;;;;5.53;4.80;;;23.10;99.90;;;;;;5065955;28;20444;-79
2023/08/20 07:02:09;;;;;;;4.30;4.00;;;23.20;99.90;;;;;;5066078;28;20467;-79
2023/08/20 07:04:36;;;;;;;4.67;3.63;;;23.40;99.90;;;;;;5066218;28;21003;-79
2023/08/20 07:07:04;;;;;;;5.77;5.33;;;23.70;99.90;;;;;;5072775;28;20491;-82
2023/08/20 07:09:31;;;;;;;5.07;4.67;;;23.90;99.90;;;;;;5075151;28;22828;-79
2023/08/20 07:11:58;;;;;;;4.60;4.20;;;23.80;99.90;;;;;;5070975;28;20479;-79
2023/08/20 07:14:26;;;;;;;5.37;4.87;;;24.10;99.90;;;;;;5067637;28;20938;-80
2023/08/20 07:16:53;;;;;;;4.90;4.60;;;24.20;99.90;;;;;;5077245;28;20843;-79
2023/08/20 07:19:20;;;;;;;6.60;6.10;;;24.40;99.90;;;;;;5070437;28;20447;-79
2023/08/20 07:21:47;;;;;;;5.80;5.30;;;24.60;99.90;;;;;;5074561;28;20549;-79
2023/08/20 07:24:14;;;;;;;6.67;6.10;;;24.70;99.90;;;;;;5081165;28;20449;-80
2023/08/20 07:26:42;;;;;;;5.07;4.63;;;24.80;99.90;;;;;;5070967;28;20484;-81
2023/08/20 07:29:09;;;;;;;4.50;4.10;;;24.90;99.90;;;;;;5085353;28;20516;-81
2023/08/20 07:31:37;;;;;;;5.20;4.70;;;24.80;99.90;;;;;;5089218;28;21209;-80
2023/08/20 07:34:04;;;;;;;5.20;4.83;;;24.90;99.90;;;;;;5085976;28;20555;-79
2023/08/20 07:36:31;;;;;;;5.40;4.90;;;24.90;99.90;;;;;;5085340;28;20461;-80
2023/08/20 07:38:58;;;;;;;10.30;9.40;;;25.00;99.90;;;;;;5072121;28;20528;-81
2023/08/20 07:41:25;;;;;;;5.47;5.00;;;25.10;99.90;;;;;;5091046;28;20521;-82
2023/08/20 07:43:52;;;;;;;16.30;14.43;;;25.30;99.90;;;;;;5090143;28;20866;-80
2023/08/20 07:46:19;;;;;;;6.27;5.73;;;25.40;99.90;;;;;;5081983;28;20482;-80
2023/08/20 07:48:48;;;;;;;5.00;4.60;;;25.30;99.90;;;;;;5087323;28;20607;-79
2023/08/20 07:51:15;;;;;;;4.93;4.53;;;25.40;99.90;;;;;;5087793;28;20475;-79
2023/08/20 07:53:42;;;;;;;14.37;10.57;;;25.50;99.90;;;;;;5079248;28;20491;-79
2023/08/20 07:56:09;;;;;;;6.13;5.63;;;25.40;99.90;;;;;;5081498;28;20508;-80
2023/08/20 07:58:36;;;;;;;4.33;4.03;;;25.60;99.90;;;;;;5076294;28;20578;-80
2023/08/20 08:01:03;;;;;;;5.60;5.20;;;25.80;99.90;;;;;;5086655;28;20535;-78
2023/08/20 08:03:30;;;;;;;4.60;4.30;;;25.80;99.90;;;;;;5087634;28;20512;-79
2023/08/20 08:05:58;;;;;;;4.57;4.20;;;25.90;99.90;;;;;;5078053;28;20525;-79
2023/08/20 08:08:25;;;;;;;4.97;4.57;;;26.00;99.90;;;;;;5084362;28;20483;-80
2023/08/20 08:10:52;;;;;;;6.07;5.53;;;26.30;99.90;;;;;;5088303;28;20478;-80
2023/08/20 08:13:21;;;;;;;4.90;4.50;;;26.30;99.90;;;;;;5070881;28;20464;-79
2023/08/20 08:15:48;;;;;;;5.57;5.17;;;26.30;99.90;;;;;;5082938;28;20439;-82
2023/08/20 08:18:15;;;;;;;6.00;5.50;;;26.50;99.90;;;;;;5081383;28;20511;-79
2023/08/20 08:20:42;;;;;;;7.30;6.77;;;26.40;99.90;;;;;;5075341;28;20447;-82
2023/08/20 08:23:10;;;;;;;5.87;5.30;;;26.80;99.90;;;;;;5083677;28;20467;-79
2023/08/20 08:25:38;;;;;;;7.60;6.37;;;27.00;99.90;;;;;;5071866;28;20500;-79
2023/08/20 08:28:05;;;;;;;9.93;4.93;;;27.00;99.90;;;;;;5076833;28;20864;-78
2023/08/20 08:30:32;;;;;;;6.43;5.60;;;26.80;99.90;;;;;;5079040;28;20451;-79
2023/08/20 08:32:59;;;;;;;6.03;5.60;;;26.80;99.90;;;;;;5082540;28;20540;-79
2023/08/20 08:35:26;;;;;;;7.77;7.07;;;27.20;99.90;;;;;;5080944;28;20509;-80
2023/08/20 08:37:53;;;;;;;6.83;6.13;;;27.40;99.90;;;;;;5086602;28;20489;-82
2023/08/20 08:40:23;;;;;;;5.10;4.60;;;27.50;99.90;;;;;;5086660;28;21038;-79
2023/08/20 08:42:51;;;;;;;5.20;4.70;;;27.40;99.90;;;;;;5084879;28;20529;-78
2023/08/20 08:45:20;;;;;;;6.60;6.10;;;27.10;99.90;;;;;;5081645;28;20558;-79
2023/08/20 08:47:47;;;;;;;5.07;4.70;;;27.00;99.90;;;;;;5087255;28;20459;-79
2023/08/20 08:50:14;;;;;;;7.20;6.50;;;26.60;99.90;;;;;;5086395;28;20458;-79
2023/08/20 08:52:43;;;;;;;5.63;5.13;;;26.70;99.90;;;;;;5085861;28;20588;-81
2023/08/20 08:55:10;;;;;;;7.13;5.50;;;27.00;99.90;;;;;;5085257;28;20544;-79
2023/08/20 08:57:38;;;;;;;4.30;4.00;;;26.90;99.90;;;;;;5076718;28;21182;-79
2023/08/20 09:00:07;;;;;;;4.87;4.33;;;27.00;99.90;;;;;;5082365;28;20926;-80
2023/08/20 09:02:34;;;;;;;5.17;4.77;;;27.20;99.90;;;;;;5086272;28;20443;-80
2023/08/20 09:05:01;;;;;;;5.30;4.90;;;27.50;99.90;;;;;;5080527;28;20483;-79
2023/08/20 09:07:28;;;;;;;5.03;4.73;;;27.50;99.90;;;;;;5086181;28;20513;-79
2023/08/20 09:10:00;;;;;;;5.43;5.03;;;27.70;99.90;;;;;;5087840;28;21062;-79
2023/08/20 09:12:27;;;;;;;6.93;5.43;;;27.90;99.40;;;;;;5078058;28;20543;-81
2023/08/20 09:15:00;;;;;;;6.43;5.40;;;28.10;99.80;;;;;;5079641;28;20537;-79
2023/08/20 09:17:28;;;;;;;5.00;4.50;;;28.30;99.90;;;;;;5077300;28;20548;-78
2023/08/20 09:19:56;;;;;;;4.07;3.83;;;28.40;98.80;;;;;;5082448;28;20904;-78
2023/08/20 09:22:24;;;;;;;5.30;4.90;;;28.50;99.00;;;;;;5086961;28;20534;-79
2023/08/20 09:24:55;;;;;;;9.80;4.87;;;28.30;97.20;;;;;;5089624;28;20447;-79
2023/08/20 09:27:23;;;;;;;4.60;4.20;;;28.30;99.90;;;;;;5077558;28;20547;-78
2023/08/20 09:29:51;;;;;;;4.90;4.60;;;28.60;99.10;;;;;;5075149;28;20460;-81
2023/08/20 09:32:20;;;;;;;5.10;4.70;;;28.70;98.40;;;;;;5086724;28;20900;-80
2023/08/20 09:34:48;;;;;;;5.10;4.77;;;29.00;97.80;;;;;;5075760;28;20834;-81
2023/08/20 09:37:17;;;;;;;4.53;4.23;;;29.10;97.30;;;;;;5086812;28;20475;-80
2023/08/20 09:39:44;;;;;;;5.40;4.70;;;29.50;97.30;;;;;;5078200;28;20478;-79
2023/08/20 09:42:12;;;;;;;5.80;5.40;;;29.70;97.30;;;;;;5079484;28;20545;-79
2023/08/20 09:44:41;;;;;;;4.27;4.00;;;29.90;96.20;;;;;;5082900;28;20540;-79
2023/08/20 09:47:09;;;;;;;4.73;4.43;;;29.90;97.30;;;;;;5086625;28;20473;-79
2023/08/20 09:49:41;;;;;;;6.80;4.23;;;29.70;97.30;;;;;;5086216;28;20459;-80
2023/08/20 09:52:10;;;;;;;5.50;5.10;;;29.80;97.30;;;;;;5076874;28;20500;-78
2023/08/20 09:54:52;;;;;;;4.13;3.90;;;30.40;95.70;;;;;;5085998;28;20467;-82
2023/08/20 09:57:28;;;;;;;5.27;4.90;;;30.50;95.30;;;;;;5085235;28;20541;-81
2023/08/20 09:59:56;;;;;;;5.27;4.87;;;30.50;94.90;;;;;;5085828;28;20850;-79
2023/08/20 10:02:24;;;;;;;4.60;4.30;;;30.80;96.40;;;;;;5082127;28;21039;-82
2023/08/20 10:04:53;;;;;;;4.47;3.47;;;31.20;93.70;;;;;;5076390;28;20447;-79
2023/08/20 10:07:21;;;;;;;7.53;4.00;;;31.00;91.80;;;;;;5076961;28;20957;-79
2023/08/20 10:09:50;;;;;;;5.30;4.63;;;31.00;92.40;;;;;;5074346;28;20448;-82
2023/08/20 10:12:17;;;;;;;5.23;4.80;;;31.20;95.00;;;;;;5071976;28;20463;-80
2023/08/20 10:14:45;;;;;;;5.80;4.67;;;31.30;93.20;;;;;;5070460;28;20463;-80
2023/08/20 10:17:15;;;;;;;5.43;5.10;;;31.40;92.30;;;;;;5088601;28;20447;-79
2023/08/20 10:19:42;;;;;;;4.20;4.00;;;31.10;90.20;;;;;;5085086;28;20462;-78
2023/08/20 10:22:11;;;;;;;5.17;4.77;;;30.50;91.50;;;;;;5084766;28;20446;-79
2023/08/20 10:24:43;;;;;;;6.63;4.60;;;30.80;91.50;;;;;;5086698;28;20439;-82
2023/08/20 10:27:11;;;;;;;4.83;4.47;;;31.00;90.20;;;;;;5077903;28;20563;-79
2023/08/20 10:29:41;;;;;;;4.87;4.47;;;31.50;89.70;;;;;;5070472;28;20471;-81
2023/08/20 10:32:09;;;;;;;3.97;3.73;;;31.60;84.30;;;;;;5076332;28;20443;-79
2023/08/20 10:34:39;;;;;;;4.03;3.83;;;31.40;83.70;;;;;;5076226;28;20867;-79
2023/08/20 10:37:13;;;;;;;4.10;3.83;;;31.10;77.70;;;;;;5085439;28;20445;-82
2023/08/20 10:39:42;;;;;;;3.83;3.63;;;31.60;72.80;;;;;;5073077;28;20547;-79
2023/08/20 10:42:26;;;;;;;5.17;4.87;;;32.20;76.80;;;;;;5076474;28;20900;-80
2023/08/20 10:45:00;;;;;;;4.37;4.07;;;32.50;77.90;;;;;;5079140;28;20470;-79
2023/08/20 10:47:37;;;;;;;4.40;4.10;;;32.80;82.00;;;;;;5086345;28;20489;-79
2023/08/20 10:50:04;;;;;;;4.57;4.17;;;32.90;78.60;;;;;;5068287;28;20473;-79
2023/08/20 10:52:33;;;;;;;3.83;3.63;;;33.90;75.50;;;;;;5075682;28;20560;-79
2023/08/20 10:55:01;;;;;;;4.23;3.93;;;33.80;72.80;;;;;;5089054;28;20484;-77
2023/08/20 10:57:35;;;;;;;4.37;4.13;;;33.30;68.50;;;;;;5070114;28;20448;-79
2023/08/20 11:00:09;;;;;;;4.63;4.37;;;33.50;74.20;;;;;;5071364;28;20484;-79
2023/08/20 11:02:36;;;;;;;3.70;3.40;;;33.30;72.20;;;;;;5076022;28;20536;-83
2023/08/20 11:05:04;;;;;;;4.93;4.53;;;33.50;75.90;;;;;;5072990;28;20447;-80
2023/08/20 11:07:34;;;;;;;3.23;2.90;;;33.20;66.30;;;;;;5079673;28;20497;-78
2023/08/20 11:10:03;;;;;;;3.37;3.17;;;32.80;66.00;;;;;;5075342;28;20463;-79
2023/08/20 11:12:31;;;;;;;4.40;4.20;;;32.90;67.50;;;;;;5082532;28;20448;-78
2023/08/20 11:15:02;;;;;;;4.03;3.73;;;33.30;68.60;;;;;;5075530;28;20497;-79
2023/08/20 11:17:29;;;;;;;7.33;4.40;;;33.60;63.30;;;;;;5070741;28;20509;-77
2023/08/20 11:19:56;;;;;;;4.10;3.30;;;33.50;63.00;;;;;;5078182;28;20480;-81
2023/08/20 11:22:23;;;;;;;3.87;3.67;;;33.70;64.70;;;;;;5078290;28;20447;-81
2023/08/20 11:24:52;;;;;;;3.73;3.53;;;33.30;62.10;;;;;;5081041;28;20536;-82
2023/08/20 11:27:19;;;;;;;4.60;4.27;;;33.00;59.80;;;;;;5069519;28;20746;-78
2023/08/20 11:29:46;;;;;;;4.10;3.40;;;33.10;58.20;;;;;;5070729;28;20939;-78
2023/08/20 11:32:13;;;;;;;4.10;3.80;;;32.80;57.70;;;;;;5082730;28;20804;-78
2023/08/20 11:34:40;;;;;;;4.20;3.90;;;33.10;59.50;;;;;;5088032;28;20447;-81
2023/08/20 11:37:07;;;;;;;3.80;3.50;;;33.30;62.60;;;;;;5083919;28;20459;-78
2023/08/20 11:39:34;;;;;;;3.40;3.20;;;33.50;57.70;;;;;;5083926;28;21114;-78
2023/08/20 11:42:03;;;;;;;3.43;3.23;;;33.40;56.90;;;;;;5076049;28;20460;-78
2023/08/20 11:44:43;;;;;;;4.03;3.83;;;33.70;55.00;;;;;;5081964;28;21034;-78
2023/08/20 11:47:15;;;;;;;3.63;3.43;;;34.10;54.50;;;;;;5088621;28;20985;-81
2023/08/20 11:49:42;;;;;;;2.80;2.67;;;34.10;51.90;;;;;;5082948;28;20599;-78
2023/08/20 11:52:09;;;;;;;2.70;2.60;;;33.80;51.50;;;;;;5088049;28;20933;-78
2023/08/20 11:54:36;;;;;;;13.50;3.30;;;33.80;54.30;;;;;;5085424;28;20968;-78
2023/08/20 11:57:06;;;;;;;2.60;2.50;;;33.40;58.90;;;;;;5087498;28;20475;-80
2023/08/20 11:59:33;;;;;;;3.03;2.77;;;33.00;52.50;;;;;;5087562;28;20540;-78
2023/08/20 12:02:02;;;;;;;2.37;2.20;;;32.90;48.40;;;;;;5078119;28;20470;-82
2023/08/20 12:04:31;;;;;;;2.33;2.23;;;33.10;46.00;;;;;;5079684;28;20471;-80
2023/08/20 12:07:05;;;;;;;1.67;1.57;;;33.30;46.10;;;;;;5081094;28;20482;-78
2023/08/20 12:09:33;;;;;;;2.20;2.10;;;33.60;40.60;;;;;;5084911;28;21005;-78
2023/08/20 12:12:01;;;;;;;2.03;1.93;;;33.60;48.00;;;;;;5082440;28;21002;-79
2023/08/20 12:14:29;;;;;;;2.90;2.67;;;33.50;44.00;;;;;;5070580;28;20466;-77
2023/08/20 12:16:56;;;;;;;2.80;2.60;;;33.20;44.80;;;;;;5070938;28;20493;-77
2023/08/20 12:19:24;;;;;;;4.00;3.43;;;33.40;44.70;;;;;;5074892;28;20484;-78
2023/08/20 12:21:51;;;;;;;2.47;2.37;;;33.50;47.90;;;;;;5079091;28;20486;-78
2023/08/20 12:24:19;;;;;;;2.73;2.63;;;33.60;44.90;;;;;;5077261;28;20513;-79
2023/08/20 12:26:46;;;;;;;2.33;2.13;;;33.40;49.20;;;;;;5067988;28;20486;-78
2023/08/20 12:29:13;;;;;;;2.37;2.20;;;33.40;47.20;;;;;;5070389;28;20534;-78
2023/08/20 12:31:42;;;;;;;3.23;1.80;;;33.50;42.70;;;;;;5080544;28;20472;-81
2023/08/20 12:34:09;;;;;;;2.17;1.97;;;33.60;43.50;;;;;;5084351;28;20444;-78
2023/08/20 12:36:36;;;;;;;2.73;2.63;;;33.90;46.40;;;;;;5082970;28;20473;-78
2023/08/20 12:39:04;;;;;;;2.53;2.33;;;33.90;47.00;;;;;;5088076;28;20577;-78
2023/08/20 12:41:31;;;;;;;2.73;2.50;;;34.40;43.80;;;;;;5070156;28;20440;-77
2023/08/20 12:43:59;;;;;;;2.40;2.20;;;34.40;42.80;;;;;;5078732;28;20876;-81
2023/08/20 12:46:26;;;;;;;2.10;1.80;;;33.90;45.50;;;;;;5074210;28;20668;-78
2023/08/20 12:48:54;;;;;;;3.73;2.57;;;33.40;43.60;;;;;;5075054;28;20883;-80